Latest Weather Observations for Fort Denison

IDN60801

Issued at 2:33 am EDT Saturday 28 March 2015 (issued every 30 minutes, with the page automatically refreshed every 10 minutes)

About weather observations | Map of weather stations | Latest weather observations for NSW | Other Formats
Station Details ID: 066022 Name: FORT DENISON Lat: -33.86 Lon: 151.23 Height: 5.0 m
Data from the previous 72 hours. | See also: Recent months for locations in New South Wales
Date/Time
EDT
Temp
°C
App
Temp
°C
Dew
Point
Rel
Hum
%
Delta-T
°C
Wind Press
QNH
hPa
Press
MSL
hPa
Rain
since 9 am
mm
Dir
 
Spd
km/h
Gust
km/h
Spd
kts
Gust
kts
28/02:30am - - - - - W 19 26 10 14 - - -
28/02:00am - - - - - W 17 26 9 14 - - -
28/01:30am - - - - - W 17 20 9 11 - - -
28/01:00am - - - - - W 17 22 9 12 - - -
28/12:30am - - - - - W 15 19 8 10 - - -
28/12:00am - - - - - W 17 22 9 12 - - -
 
Date/Time
EDT
Temp
°C
App
Temp
°C
Dew
Point
Rel
Hum
%
Delta-T
°C
Wind Press
QNH
hPa
Press
MSL
hPa
Rain
since 9 am
mm
Dir
 
Spd
km/h
Gust
km/h
Spd
kts
Gust
kts
27/11:30pm - - - - - W 15 24 8 13 - - -
27/11:00pm - - - - - SW 13 26 7 14 - - -
27/10:30pm - - - - - WSW 11 20 6 11 - - -
27/10:00pm - - - - - WSW 15 22 8 12 - - -
27/09:30pm - - - - - WSW 11 22 6 12 - - -
27/09:00pm - - - - - W 13 20 7 11 - - -
27/08:30pm - - - - - NW 6 11 3 6 - - -
27/08:00pm - - - - - NNE 4 6 2 3 - - -
27/07:30pm - - - - - NE 4 7 2 4 - - -
27/07:00pm - - - - - NE 9 13 5 7 - - -
27/06:30pm - - - - - ENE 15 19 8 10 - - -
27/06:00pm - - - - - E 19 22 10 12 - - -
27/05:30pm - - - - - ESE 20 30 11 16 - - -
27/05:00pm - - - - - SSW 11 24 6 13 - - -
27/04:30pm - - - - - SW 19 30 10 16 - - -
27/04:00pm - - - - - WSW 22 37 12 20 - - -
27/03:32pm - - - - - WSW 28 46 15 25 - - -
27/03:30pm - - - - - WSW 28 46 15 25 - - -
27/03:28pm - - - - - WSW 26 46 14 25 - - -
27/03:00pm - - - - - W 22 33 12 18 - - -
27/02:30pm - - - - - W 13 22 7 12 - - -
27/02:00pm - - - - - W 20 30 11 16 - - -
27/01:30pm - - - - - W 19 30 10 16 - - -
27/01:00pm - - - - - W 20 32 11 17 - - -
27/12:30pm - - - - - W 22 33 12 18 - - -
27/12:00pm - - - - - WNW 19 32 10 17 - - -
27/11:30am - - - - - W 20 33 11 18 - - -
27/11:00am - - - - - WNW 20 24 11 13 - - -
27/10:30am - - - - - W 22 30 12 16 - - -
27/10:00am - - - - - WNW 22 32 12 17 - - -
27/09:30am - - - - - W 20 28 11 15 - - -
27/09:00am - - - - - W 15 20 8 11 - - -
27/08:30am - - - - - W 24 33 13 18 - - -
27/08:00am - - - - - W 26 37 14 20 - - -
27/07:30am - - - - - W 22 30 12 16 - - -
27/07:00am - - - - - W 22 30 12 16 - - -
27/06:30am - - - - - W 22 32 12 17 - - -
27/06:00am - - - - - W 20 30 11 16 - - -
27/05:30am - - - - - W 26 33 14 18 - - -
27/05:00am - - - - - W 26 33 14 18 - - -
27/04:30am - - - - - W 30 43 16 23 - - -
27/04:00am - - - - - WSW 32 44 17 24 - - -
27/03:30am - - - - - WSW 28 44 15 24 - - -
27/03:00am - - - - - WSW 32 43 17 23 - - -
27/02:30am - - - - - WSW 30 39 16 21 - - -
27/02:00am - - - - - WSW 33 44 18 24 - - -
27/01:30am - - - - - WSW 30 50 16 27 - - -
27/01:00am - - - - - WSW 24 35 13 19 - - -
27/12:30am - - - - - WSW 24 37 13 20 - - -
27/12:00am - - - - - W 22 32 12 17 - - -
 
Date/Time
EDT
Temp
°C
App
Temp
°C
Dew
Point
Rel
Hum
%
Delta-T
°C
Wind Press
QNH
hPa
Press
MSL
hPa
Rain
since 9 am
mm
Dir
 
Spd
km/h
Gust
km/h
Spd
kts
Gust
kts
26/11:30pm - - - - - WSW 26 39 14 21 - - -
26/11:00pm - - - - - WSW 22 33 12 18 - - -
26/10:30pm - - - - - WSW 19 28 10 15 - - -
26/10:00pm - - - - - WSW 15 26 8 14 - - -
26/09:30pm - - - - - WSW 20 32 11 17 - - -
26/09:00pm - - - - - W 13 24 7 13 - - -
26/08:30pm - - - - - NNW 6 9 3 5 - - -
26/08:00pm - - - - - NNW 2 6 1 3 - - -
26/07:30pm - - - - - NE 6 7 3 4 - - -
26/07:00pm - - - - - ESE 11 13 6 7 - - -
26/06:30pm - - - - - ESE 9 13 5 7 - - -
26/06:00pm - - - - - E 15 19 8 10 - - -
26/05:30pm - - - - - ESE 17 22 9 12 - - -
26/05:00pm - - - - - ESE 15 19 8 10 - - -
26/04:30pm - - - - - ESE 20 28 11 15 - - -
26/04:00pm - - - - - WNW 6 11 3 6 - - -
26/03:30pm - - - - - NW 15 26 8 14 - - -
26/03:00pm - - - - - WNW 17 26 9 14 - - -
26/02:30pm - - - - - W 20 35 11 19 - - -
26/02:00pm - - - - - W 13 22 7 12 - - -
26/01:30pm - - - - - W 15 22 8 12 - - -
26/01:00pm - - - - - W 19 24 10 13 - - -
26/12:30pm - - - - - W 17 22 9 12 - - -
26/12:00pm - - - - - W 17 22 9 12 - - -
26/11:30am - - - - - WNW 17 22 9 12 - - -
26/11:00am - - - - - WNW 17 22 9 12 - - -
26/10:30am - - - - - WNW 17 22 9 12 - - -
26/10:00am - - - - - W 19 24 10 13 - - -
26/09:30am - - - - - W 20 26 11 14 - - -
26/09:00am - - - - - W 19 22 10 12 - - -
26/08:30am - - - - - W 19 22 10 12 - - -
26/08:00am - - - - - W 13 15 7 8 - - -
26/07:30am - - - - - WNW 11 15 6 8 - - -
26/07:00am - - - - - W 13 15 7 8 - - -
26/06:30am - - - - - WNW 7 13 4 7 - - -
26/06:00am - - - - - W 15 20 8 11 - - -
26/05:30am - - - - - WNW 7 11 4 6 - - -
26/05:00am - - - - - W 15 17 8 9 - - -
26/04:30am - - - - - W 13 17 7 9 - - -
26/04:00am - - - - - WNW 9 9 5 5 - - -
26/03:30am - - - - - WNW 7 9 4 5 - - -
26/03:00am - - - - - W 15 17 8 9 - - -
26/02:30am - - - - - W 13 17 7 9 - - -
26/02:00am - - - - - W 7 9 4 5 - - -
26/01:30am - - - - - W 9 11 5 6 - - -
26/01:00am - - - - - WNW 11 15 6 8 - - -
26/12:30am - - - - - NNW 6 9 3 5 - - -
26/12:00am - - - - - NNW 6 7 3 4 - - -
 
Date/Time
EDT
Temp
°C
App
Temp
°C
Dew
Point
Rel
Hum
%
Delta-T
°C
Wind Press
QNH
hPa
Press
MSL
hPa
Rain
since 9 am
mm
Dir
 
Spd
km/h
Gust
km/h
Spd
kts
Gust
kts
25/11:30pm - - - - - NE 9 13 5 7 - - -
25/11:00pm - - - - - E 13 17 7 9 - - -
25/10:30pm - - - - - E 13 15 7 8 - - -
25/10:00pm - - - - - E 13 17 7 9 - - -
25/09:30pm - - - - - E 15 19 8 10 - - -
25/09:00pm - - - - - ESE 13 19 7 10 - - -
25/08:30pm - - - - - E 15 19 8 10 - - -
25/08:00pm - - - - - ESE 17 20 9 11 - - -
25/07:30pm - - - - - ESE 19 22 10 12 - - -
25/07:00pm - - - - - ESE 17 22 9 12 - - -
25/06:30pm - - - - - SE 15 20 8 11 - - -
25/06:00pm - - - - - SE 15 20 8 11 - - -
25/05:30pm - - - - - SE 13 19 7 10 - - -
25/05:00pm - - - - - SE 17 24 9 13 - - -
25/04:30pm - - - - - SE 19 26 10 14 - - -
25/04:00pm - - - - - SE 24 32 13 17 - - -
25/03:30pm - - - - - SE 22 30 12 16 - - -
25/03:00pm - - - - - SSE 20 28 11 15 - - -
25/02:30pm - - - - - SSE 24 33 13 18 - - -
25/02:00pm - - - - - SSE 20 28 11 15 - - -
25/01:30pm - - - - - S 20 30 11 16 - - -
25/01:00pm - - - - - S 19 33 10 18 - - -
25/12:30pm - - - - - S 19 30 10 16 - - -
25/12:00pm - - - - - S 22 30 12 16 - - -
25/11:30am - - - - - S 20 32 11 17 - - -
25/11:00am - - - - - S 20 37 11 20 - - -
25/10:30am - - - - - S 19 35 10 19 - - -
25/10:00am - - - - - SSW 13 19 7 10 - - -
25/09:30am - - - - - W 19 26 10 14 - - -
25/09:00am - - - - - W 19 24 10 13 - - -
25/08:30am - - - - - W 22 26 12 14 - - -
25/08:00am - - - - - W 22 26 12 14 - - -
25/07:30am - - - - - W 20 26 11 14 - - -
25/07:00am - - - - - W 20 24 11 13 - - -
25/06:30am - - - - - W 20 24 11 13 - - -
25/06:00am - - - - - W 20 24 11 13 - - -
25/05:30am - - - - - W 20 26 11 14 - - -
25/05:00am - - - - - W 20 26 11 14 - - -
25/04:30am - - - - - W 20 28 11 15 - - -
25/04:00am - - - - - WSW 17 24 9 13 - - -
25/03:30am - - - - - SW 15 22 8 12 - - -
25/03:00am - - - - - SW 11 17 6 9 - - -

Other Formats:

Comma delimited format used in spreadsheet applications
http://www.bom.gov.au/fwo/IDN60801/IDN60801.94769.axf

JavaScript Object Notation format (JSON) in row-major order
http://www.bom.gov.au/fwo/IDN60801/IDN60801.94769.json